CPX772 Details

Departure: Tallinn Airport (EETN)
Arrival: Liège Airport (EBLG)
Route: TLL Q11 PIMEX P739 KOLJA M864 BUMIL OSB


Current Weather Information
EETN 221220Z 30017KT CAVOK 06/M06 Q1027 R08/12//95 NOSIG
EBLG 221150Z VRB03KT CAVOK 17/00 Q1028 NOSIG